Time;durP1;ratioP1;P1;durP2;ratioP2;P2;SDS_P1;SDS_P2;PMS_P1;PMS_P2;Temp;Humidity;BMP_temperature;BMP_pressure;BME280_temperature;BME280_humidity;BME280_pressure;Samples;Min_cycle;Max_cycle;Signal;HPM_P1;HPM_P2
2024/04/12 00:01:05;;;;;;;0.00;0.00;;;;;;;;;;7399628;19;20153;-50
2024/04/12 00:03:31;;;;;;;0.00;0.00;;;;;;;;;;7399322;19;20142;-50
2024/04/12 00:06:00;;;;;;;0.00;0.00;;;;;;;;;;7399814;19;20153;-49
2024/04/12 00:08:30;;;;;;;0.00;0.00;;;;;;;;;;7399293;19;20137;-50
2024/04/12 00:10:57;;;;;;;0.00;0.00;;;;;;;;;;7398397;19;20144;-50
2024/04/12 00:13:26;;;;;;;0.00;0.00;;;;;;;;;;7398970;19;20134;-49
2024/04/12 00:15:55;;;;;;;0.00;0.00;;;;;;;;;;7397499;19;20138;-50
2024/04/12 00:18:22;;;;;;;0.00;0.00;;;;;;;;;;7398753;19;20228;-51
2024/04/12 00:20:48;;;;;;;0.00;0.00;;;;;;;;;;7399059;19;20168;-50
2024/04/12 00:23:14;;;;;;;0.00;0.00;;;;;;;;;;7398912;19;20149;-50
2024/04/12 00:25:40;;;;;;;0.00;0.00;;;;;;;;;;7398556;19;20145;-51
2024/04/12 00:28:06;;;;;;;0.00;0.00;;;;;;;;;;7398513;19;20610;-51
2024/04/12 00:30:39;;;;;;;0.00;0.00;;;;;;;;;;7397598;19;20134;-51
2024/04/12 00:33:11;;;;;;;0.00;0.00;;;;;;;;;;7398732;19;20170;-51
2024/04/12 00:35:38;;;;;;;0.00;0.00;;;;;;;;;;7398728;19;20134;-51
2024/04/12 00:38:09;;;;;;;0.00;0.00;;;;;;;;;;7398633;19;20153;-51
2024/04/12 00:40:40;;;;;;;0.00;0.00;;;;;;;;;;7398076;19;20513;-50
2024/04/12 00:43:13;;;;;;;0.00;0.00;;;;;;;;;;7398044;19;20628;-50
2024/04/12 00:45:43;;;;;;;0.00;0.00;;;;;;;;;;7398051;19;20134;-50
2024/04/12 00:48:10;;;;;;;0.00;0.00;;;;;;;;;;7396967;19;20195;-51
2024/04/12 00:50:37;;;;;;;0.00;0.00;;;;;;;;;;7397285;19;20530;-50
2024/04/12 00:53:04;;;;;;;0.00;0.00;;;;;;;;;;7396396;19;20151;-50
2024/04/12 00:55:35;;;;;;;0.00;0.00;;;;;;;;;;7398174;19;20149;-50
2024/04/12 00:58:01;;;;;;;0.00;0.00;;;;;;;;;;7397679;19;20594;-49
2024/04/12 01:00:35;;;;;;;0.00;0.00;;;;;;;;;;7397384;19;20133;-50
2024/04/12 01:03:05;;;;;;;0.07;0.07;;;;;;;;;;7397324;19;20505;-50
2024/04/12 01:05:32;;;;;;;0.00;0.00;;;;;;;;;;7397827;19;20173;-50
2024/04/12 01:08:00;;;;;;;0.00;0.00;;;;;;;;;;7397556;19;20532;-50
2024/04/12 01:10:30;;;;;;;0.00;0.00;;;;;;;;;;7397037;19;20209;-50
2024/04/12 01:12:57;;;;;;;0.00;0.00;;;;;;;;;;7397554;19;20142;-50
2024/04/12 01:15:24;;;;;;;0.00;0.00;;;;;;;;;;7396832;19;20130;-50
2024/04/12 01:17:51;;;;;;;0.00;0.00;;;;;;;;;;7397175;19;20184;-50
2024/04/12 01:20:17;;;;;;;0.00;0.00;;;;;;;;;;7396758;19;20201;-52
2024/04/12 01:22:46;;;;;;;0.00;0.00;;;;;;;;;;7397136;19;20159;-50
2024/04/12 01:25:13;;;;;;;0.00;0.00;;;;;;;;;;7395880;19;20142;-50
2024/04/12 01:27:40;;;;;;;0.00;0.00;;;;;;;;;;7397479;19;20137;-51
2024/04/12 01:30:11;;;;;;;0.00;0.00;;;;;;;;;;7396400;19;20145;-51
2024/04/12 01:32:37;;;;;;;0.00;0.00;;;;;;;;;;7396655;19;20185;-51
2024/04/12 01:35:03;;;;;;;0.00;0.00;;;;;;;;;;7397070;19;20141;-50
2024/04/12 01:37:30;;;;;;;0.00;0.00;;;;;;;;;;7395289;19;20226;-50
2024/04/12 01:40:01;;;;;;;0.00;0.00;;;;;;;;;;7396594;19;20146;-50
2024/04/12 01:42:28;;;;;;;0.00;0.00;;;;;;;;;;7396561;19;20160;-50
2024/04/12 01:45:15;;;;;;;0.00;0.00;;;;;;;;;;7396115;19;20170;-51
2024/04/12 01:47:47;;;;;;;0.00;0.00;;;;;;;;;;7395559;19;20252;-51
2024/04/12 01:50:13;;;;;;;0.00;0.00;;;;;;;;;;7395831;19;20142;-51
2024/04/12 01:52:57;;;;;;;0.00;0.00;;;;;;;;;;7396448;19;20130;-51
2024/04/12 01:55:27;;;;;;;0.00;0.00;;;;;;;;;;7394547;19;20153;-50
2024/04/12 01:57:55;;;;;;;0.00;0.00;;;;;;;;;;7395888;19;20600;-50
2024/04/12 02:00:23;;;;;;;0.00;0.00;;;;;;;;;;7395236;19;20146;-51
2024/04/12 02:02:52;;;;;;;0.00;0.00;;;;;;;;;;7395611;19;20134;-50
2024/04/12 02:05:29;;;;;;;0.00;0.00;;;;;;;;;;7392493;19;20145;-50
2024/04/12 02:08:07;;;;;;;0.00;0.00;;;;;;;;;;7395996;19;20205;-50
2024/04/12 02:10:34;;;;;;;0.00;0.00;;;;;;;;;;7395323;19;20138;-50
2024/04/12 02:13:00;;;;;;;0.00;0.00;;;;;;;;;;7395479;19;20138;-52
2024/04/12 02:15:27;;;;;;;0.00;0.00;;;;;;;;;;7395437;19;20205;-50
2024/04/12 02:17:57;;;;;;;0.00;0.00;;;;;;;;;;7395794;19;20165;-50
2024/04/12 02:20:33;;;;;;;0.00;0.00;;;;;;;;;;7395176;19;20130;-51
2024/04/12 02:23:06;;;;;;;0.00;0.00;;;;;;;;;;7395508;19;20140;-51
2024/04/12 02:25:39;;;;;;;0.00;0.00;;;;;;;;;;7394910;19;20193;-50
2024/04/12 02:28:07;;;;;;;0.00;0.00;;;;;;;;;;7394689;19;20593;-51
2024/04/12 02:30:41;;;;;;;0.00;0.00;;;;;;;;;;7394452;19;20146;-50
2024/04/12 02:33:18;;;;;;;0.00;0.00;;;;;;;;;;7395276;19;20464;-50
2024/04/12 02:35:47;;;;;;;0.03;0.03;;;;;;;;;;7395132;19;20149;-51
2024/04/12 02:38:22;;;;;;;0.10;0.10;;;;;;;;;;7394843;19;20213;-52
2024/04/12 02:40:51;;;;;;;0.07;0.07;;;;;;;;;;7394547;19;20141;-51
2024/04/12 02:43:18;;;;;;;0.00;0.00;;;;;;;;;;7394634;19;20161;-52
2024/04/12 02:45:50;;;;;;;0.00;0.00;;;;;;;;;;7394730;19;20157;-51
2024/04/12 02:48:22;;;;;;;0.00;0.00;;;;;;;;;;7393414;19;20196;-52
2024/04/12 02:50:54;;;;;;;0.00;0.00;;;;;;;;;;7393768;19;20205;-51
2024/04/12 02:53:23;;;;;;;0.00;0.00;;;;;;;;;;7394912;19;20142;-52
2024/04/12 02:56:01;;;;;;;0.00;0.00;;;;;;;;;;7394228;19;20146;-52
2024/04/12 02:58:28;;;;;;;0.00;0.00;;;;;;;;;;7394282;19;20482;-51
2024/04/12 03:00:59;;;;;;;0.00;0.00;;;;;;;;;;7394125;19;20189;-51
2024/04/12 03:03:26;;;;;;;0.00;0.00;;;;;;;;;;7394156;19;20597;-51
2024/04/12 03:06:01;;;;;;;0.00;0.00;;;;;;;;;;7394593;19;20138;-51
2024/04/12 03:08:32;;;;;;;0.10;0.10;;;;;;;;;;7394118;19;20149;-50
2024/04/12 03:11:12;;;;;;;0.00;0.00;;;;;;;;;;7393249;19;20138;-51
2024/04/12 03:13:38;;;;;;;0.00;0.00;;;;;;;;;;7394300;19;20137;-51
2024/04/12 03:16:13;;;;;;;0.00;0.00;;;;;;;;;;7394340;19;20176;-51
2024/04/12 03:18:39;;;;;;;0.00;0.00;;;;;;;;;;7401765;19;20177;-52
2024/04/12 03:21:05;;;;;;;0.00;0.00;;;;;;;;;;7401205;19;20142;-51
2024/04/12 03:23:31;;;;;;;0.00;0.00;;;;;;;;;;7401027;19;20613;-51
2024/04/12 03:25:57;;;;;;;0.00;0.00;;;;;;;;;;7400596;19;20141;-53
2024/04/12 03:28:23;;;;;;;0.00;0.00;;;;;;;;;;7400998;19;20130;-52
2024/04/12 03:30:50;;;;;;;0.00;0.00;;;;;;;;;;7399953;19;20193;-52
2024/04/12 03:33:16;;;;;;;0.00;0.00;;;;;;;;;;7401290;19;20138;-52
2024/04/12 03:35:43;;;;;;;0.00;0.00;;;;;;;;;;7401042;19;20498;-52
2024/04/12 03:38:28;;;;;;;0.00;0.00;;;;;;;;;;7400953;19;20142;-52
2024/04/12 03:41:03;;;;;;;0.00;0.00;;;;;;;;;;7400371;19;20648;-52
2024/04/12 03:43:29;;;;;;;0.00;0.00;;;;;;;;;;7400835;19;20144;-52
2024/04/12 03:45:58;;;;;;;0.00;0.00;;;;;;;;;;7399165;19;20205;-52
2024/04/12 03:48:24;;;;;;;0.00;0.00;;;;;;;;;;7398620;19;20245;-50
2024/04/12 03:51:06;;;;;;;0.00;0.00;;;;;;;;;;7399094;19;20142;-51
2024/04/12 03:53:32;;;;;;;0.03;0.03;;;;;;;;;;7400483;19;20149;-52
2024/04/12 03:55:58;;;;;;;0.10;0.10;;;;;;;;;;7400302;19;20160;-53
2024/04/12 03:58:24;;;;;;;0.03;0.03;;;;;;;;;;7400333;19;20134;-51
2024/04/12 04:00:56;;;;;;;0.00;0.00;;;;;;;;;;7400014;19;20146;-53
2024/04/12 04:03:31;;;;;;;0.00;0.00;;;;;;;;;;7399675;19;20126;-53
2024/04/12 04:06:11;;;;;;;0.00;0.00;;;;;;;;;;7399692;19;20139;-51
2024/04/12 04:08:48;;;;;;;0.00;0.00;;;;;;;;;;7399762;19;20150;-54
2024/04/12 04:11:17;;;;;;;0.00;0.00;;;;;;;;;;7397709;19;20145;-53
2024/04/12 04:13:49;;;;;;;0.07;0.07;;;;;;;;;;7399444;19;20130;-54
2024/04/12 04:16:18;;;;;;;0.03;0.03;;;;;;;;;;7399302;19;20644;-54
2024/04/12 04:18:49;;;;;;;0.00;0.00;;;;;;;;;;7399355;19;20177;-54
2024/04/12 04:21:24;;;;;;;0.00;0.00;;;;;;;;;;7399059;19;20141;-54
2024/04/12 04:23:50;;;;;;;0.00;0.00;;;;;;;;;;7399164;19;20134;-54
2024/04/12 04:26:17;;;;;;;0.00;0.00;;;;;;;;;;7398693;19;20165;-53
2024/04/12 04:28:43;;;;;;;0.00;0.00;;;;;;;;;;7396771;19;20159;-53
2024/04/12 04:31:09;;;;;;;0.00;0.00;;;;;;;;;;7397365;19;20201;-54
2024/04/12 04:33:38;;;;;;;0.00;0.00;;;;;;;;;;7398660;19;20130;-54
2024/04/12 04:36:11;;;;;;;0.00;0.00;;;;;;;;;;7398514;19;20126;-53
2024/04/12 04:38:38;;;;;;;0.00;0.00;;;;;;;;;;7398315;19;20126;-55
2024/04/12 04:41:07;;;;;;;0.00;0.00;;;;;;;;;;7397867;19;20161;-54
2024/04/12 04:43:36;;;;;;;0.00;0.00;;;;;;;;;;7398438;19;20133;-54
2024/04/12 04:48:49;;;;;;;0.00;0.00;;;;;;;;;;7396665;19;20214;-54
2024/04/12 04:51:16;;;;;;;0.03;0.03;;;;;;;;;;7396901;19;20140;-54
2024/04/12 04:53:42;;;;;;;0.03;0.03;;;;;;;;;;7396421;19;20597;-55
2024/04/12 04:56:09;;;;;;;0.00;0.00;;;;;;;;;;7397699;19;20139;-52
2024/04/12 04:58:41;;;;;;;0.07;0.07;;;;;;;;;;7397807;19;20197;-55
2024/04/12 05:01:11;;;;;;;0.00;0.00;;;;;;;;;;7396122;19;20142;-55
2024/04/12 05:03:37;;;;;;;0.00;0.00;;;;;;;;;;7398112;19;20142;-54
2024/04/12 05:06:06;;;;;;;0.00;0.00;;;;;;;;;;7398030;19;20138;-54
2024/04/12 05:08:35;;;;;;;0.00;0.00;;;;;;;;;;7397593;19;20134;-54
2024/04/12 05:11:08;;;;;;;0.00;0.00;;;;;;;;;;7396362;19;20166;-56
2024/04/12 05:13:38;;;;;;;0.00;0.00;;;;;;;;;;7397018;19;20621;-54
2024/04/12 05:16:10;;;;;;;0.00;0.00;;;;;;;;;;7397361;19;20134;-54
2024/04/12 05:18:36;;;;;;;0.00;0.00;;;;;;;;;;7395232;19;20217;-54
2024/04/12 05:21:07;;;;;;;0.00;0.00;;;;;;;;;;7397469;19;20168;-53
2024/04/12 05:23:37;;;;;;;0.00;0.00;;;;;;;;;;7397104;19;20141;-54
2024/04/12 05:26:05;;;;;;;0.00;0.00;;;;;;;;;;7396526;19;20141;-53
2024/04/12 05:28:31;;;;;;;0.00;0.00;;;;;;;;;;7396340;19;20154;-52
2024/04/12 05:30:57;;;;;;;0.00;0.00;;;;;;;;;;7396217;19;20517;-53
2024/04/12 05:33:24;;;;;;;0.00;0.00;;;;;;;;;;7396098;19;20138;-52
2024/04/12 05:35:51;;;;;;;0.00;0.00;;;;;;;;;;7396129;19;20519;-54
2024/04/12 05:38:20;;;;;;;0.00;0.00;;;;;;;;;;7396227;19;20598;-54
2024/04/12 05:40:52;;;;;;;0.00;0.00;;;;;;;;;;7396253;19;20141;-53
2024/04/12 05:43:18;;;;;;;0.00;0.00;;;;;;;;;;7396456;19;20138;-54
2024/04/12 05:45:47;;;;;;;0.10;0.10;;;;;;;;;;7396062;19;20138;-53
2024/04/12 05:48:14;;;;;;;0.00;0.00;;;;;;;;;;7395267;19;20212;-54
2024/04/12 05:50:48;;;;;;;0.00;0.00;;;;;;;;;;7394741;19;20209;-53
2024/04/12 05:53:14;;;;;;;0.10;0.10;;;;;;;;;;7393903;19;20150;-50
2024/04/12 05:55:52;;;;;;;0.00;0.00;;;;;;;;;;7394203;19;20146;-52
2024/04/12 05:58:23;;;;;;;0.00;0.00;;;;;;;;;;7396067;19;20158;-52
2024/04/12 06:00:50;;;;;;;0.00;0.00;;;;;;;;;;7395229;19;20484;-51
2024/04/12 06:03:16;;;;;;;0.00;0.00;;;;;;;;;;7395148;19;20137;-53
2024/04/12 06:05:43;;;;;;;0.10;0.10;;;;;;;;;;7395132;19;20137;-53
2024/04/12 06:08:12;;;;;;;0.00;0.00;;;;;;;;;;7394700;19;20138;-53
2024/04/12 06:10:39;;;;;;;0.00;0.00;;;;;;;;;;7394596;19;20141;-53
2024/04/12 06:13:07;;;;;;;0.00;0.00;;;;;;;;;;7395239;19;20148;-53
2024/04/12 06:15:37;;;;;;;0.00;0.00;;;;;;;;;;7393379;19;20165;-53
2024/04/12 06:18:08;;;;;;;0.03;0.03;;;;;;;;;;7394523;19;20629;-53
2024/04/12 06:20:34;;;;;;;0.00;0.00;;;;;;;;;;7395265;19;20142;-53
2024/04/12 06:23:06;;;;;;;0.00;0.00;;;;;;;;;;7394320;19;20133;-52
2024/04/12 06:25:43;;;;;;;0.00;0.00;;;;;;;;;;7394721;19;20191;-53
2024/04/12 06:28:13;;;;;;;0.00;0.00;;;;;;;;;;7394841;19;20130;-54
2024/04/12 06:30:43;;;;;;;0.00;0.00;;;;;;;;;;7394203;19;20558;-53
2024/04/12 06:33:12;;;;;;;0.00;0.00;;;;;;;;;;7394855;19;20130;-53
2024/04/12 06:35:40;;;;;;;0.00;0.00;;;;;;;;;;7394513;19;20481;-54
2024/04/12 06:38:10;;;;;;;0.00;0.00;;;;;;;;;;7394820;19;20148;-53
2024/04/12 06:40:37;;;;;;;0.00;0.00;;;;;;;;;;7392045;19;20146;-53
2024/04/12 06:43:06;;;;;;;0.00;0.00;;;;;;;;;;7394275;19;20129;-53
2024/04/12 06:45:41;;;;;;;0.00;0.00;;;;;;;;;;7393779;19;20150;-53
2024/04/12 06:48:10;;;;;;;0.03;0.03;;;;;;;;;;7391664;19;20196;-53
2024/04/12 06:50:36;;;;;;;0.00;0.00;;;;;;;;;;7393156;19;20501;-53
2024/04/12 06:53:08;;;;;;;0.00;0.00;;;;;;;;;;7399920;19;20601;-53
2024/04/12 06:55:45;;;;;;;0.00;0.00;;;;;;;;;;7401359;19;20130;-53
2024/04/12 06:58:12;;;;;;;0.00;0.00;;;;;;;;;;7401836;19;20134;-54
2024/04/12 07:00:38;;;;;;;0.00;0.00;;;;;;;;;;7401481;19;20134;-53
2024/04/12 07:03:07;;;;;;;0.00;0.00;;;;;;;;;;7401445;19;20157;-53
2024/04/12 07:05:37;;;;;;;0.00;0.00;;;;;;;;;;7401038;19;20126;-53
2024/04/12 07:08:05;;;;;;;0.00;0.00;;;;;;;;;;7400861;19;20157;-53
2024/04/12 07:10:32;;;;;;;0.00;0.00;;;;;;;;;;7400564;19;20141;-53
2024/04/12 07:12:58;;;;;;;0.00;0.00;;;;;;;;;;7400982;19;20153;-52
2024/04/12 07:15:24;;;;;;;0.00;0.00;;;;;;;;;;7400379;19;20620;-53
2024/04/12 07:17:50;;;;;;;0.00;0.00;;;;;;;;;;7400559;19;20213;-53
2024/04/12 07:20:27;;;;;;;0.00;0.00;;;;;;;;;;7400570;19;20134;-53
2024/04/12 07:22:55;;;;;;;0.00;0.00;;;;;;;;;;7401189;19;20130;-54
2024/04/12 07:25:23;;;;;;;0.00;0.00;;;;;;;;;;7400469;19;20130;-53
2024/04/12 07:27:53;;;;;;;0.00;0.00;;;;;;;;;;7400141;19;20464;-54
2024/04/12 07:30:20;;;;;;;0.00;0.00;;;;;;;;;;7398847;19;20146;-52
2024/04/12 07:32:47;;;;;;;0.00;0.00;;;;;;;;;;7398357;19;20605;-53
2024/04/12 07:35:26;;;;;;;0.00;0.00;;;;;;;;;;7400227;19;20136;-53
2024/04/12 07:37:59;;;;;;;0.00;0.00;;;;;;;;;;7399946;19;20161;-55
2024/04/12 07:40:30;;;;;;;0.03;0.03;;;;;;;;;;7400002;19;20138;-54
2024/04/12 07:42:57;;;;;;;0.00;0.00;;;;;;;;;;7399741;19;20197;-52
2024/04/12 07:45:25;;;;;;;0.00;0.00;;;;;;;;;;7399192;19;20130;-55
2024/04/12 07:48:11;;;;;;;0.00;0.00;;;;;;;;;;7398348;19;20720;-52
2024/04/12 07:50:39;;;;;;;0.00;0.00;;;;;;;;;;7398733;19;20171;-54
2024/04/12 07:55:55;;;;;;;0.00;0.00;;;;;;;;;;7398573;19;20136;-53
2024/04/12 07:58:26;;;;;;;0.00;0.00;;;;;;;;;;7398436;19;20140;-53
2024/04/12 08:00:58;;;;;;;0.00;0.00;;;;;;;;;;7398875;19;20134;-53
2024/04/12 08:03:26;;;;;;;0.00;0.00;;;;;;;;;;7393839;19;20229;-53
2024/04/12 08:06:03;;;;;;;0.00;0.00;;;;;;;;;;7397729;19;20254;-53
2024/04/12 08:08:29;;;;;;;0.03;0.03;;;;;;;;;;7398716;19;20146;-54
2024/04/12 08:11:10;;;;;;;0.10;0.10;;;;;;;;;;7396842;19;20133;-53
2024/04/12 08:13:43;;;;;;;0.00;0.00;;;;;;;;;;7398156;19;20134;-54
2024/04/12 08:16:14;;;;;;;0.00;0.00;;;;;;;;;;7397265;19;20556;-53
2024/04/12 08:18:43;;;;;;;0.00;0.00;;;;;;;;;;7398886;19;20169;-52
2024/04/12 08:21:12;;;;;;;0.00;0.00;;;;;;;;;;7397421;19;20500;-53
2024/04/12 08:23:43;;;;;;;0.00;0.00;;;;;;;;;;7398572;19;20133;-53
2024/04/12 08:26:10;;;;;;;0.00;0.00;;;;;;;;;;7397776;19;20156;-54
2024/04/12 08:28:43;;;;;;;0.10;0.10;;;;;;;;;;7397647;19;20488;-53
2024/04/12 08:31:10;;;;;;;0.00;0.00;;;;;;;;;;7396671;19;20146;-53
2024/04/12 08:33:40;;;;;;;0.00;0.00;;;;;;;;;;7398178;19;20494;-53
2024/04/12 08:36:13;;;;;;;0.00;0.00;;;;;;;;;;7396792;19;20150;-53
2024/04/12 08:38:53;;;;;;;0.00;0.00;;;;;;;;;;7398019;19;20166;-55
2024/04/12 08:41:21;;;;;;;0.00;0.00;;;;;;;;;;7398923;19;20525;-54
2024/04/12 08:43:53;;;;;;;0.03;0.03;;;;;;;;;;7397562;19;20145;-53
2024/04/12 08:46:25;;;;;;;0.00;0.00;;;;;;;;;;7395311;19;20145;-53
2024/04/12 08:48:51;;;;;;;0.00;0.00;;;;;;;;;;7395030;19;20177;-52
2024/04/12 08:51:21;;;;;;;0.00;0.00;;;;;;;;;;7395611;19;20144;-52
2024/04/12 08:53:55;;;;;;;0.00;0.00;;;;;;;;;;7394711;19;20475;-52
2024/04/12 08:56:23;;;;;;;0.00;0.00;;;;;;;;;;7397339;19;20201;-53
2024/04/12 08:58:52;;;;;;;0.00;0.00;;;;;;;;;;7396687;19;20130;-53
2024/04/12 09:01:23;;;;;;;0.00;0.00;;;;;;;;;;7395870;19;20197;-53
2024/04/12 09:03:51;;;;;;;0.00;0.00;;;;;;;;;;7396746;19;20145;-53
2024/04/12 09:06:23;;;;;;;0.00;0.00;;;;;;;;;;7397449;19;20168;-54
2024/04/12 09:08:51;;;;;;;0.00;0.00;;;;;;;;;;7396926;19;20159;-53
2024/04/12 09:11:19;;;;;;;0.00;0.00;;;;;;;;;;7395140;19;20162;-53
2024/04/12 09:13:49;;;;;;;0.00;0.00;;;;;;;;;;7394419;19;20145;-52
2024/04/12 09:16:19;;;;;;;0.00;0.00;;;;;;;;;;7395908;19;20226;-53
2024/04/12 09:18:46;;;;;;;0.00;0.00;;;;;;;;;;7396043;19;20190;-54
2024/04/12 09:21:24;;;;;;;0.10;0.10;;;;;;;;;;7396449;19;20585;-53
2024/04/12 09:23:50;;;;;;;0.00;0.00;;;;;;;;;;7396136;19;20145;-53
2024/04/12 09:26:24;;;;;;;0.00;0.00;;;;;;;;;;7395800;19;20155;-53
2024/04/12 09:29:17;;;;;;;0.00;0.00;;;;;;;;;;7394523;19;20197;-52
2024/04/12 09:34:35;;;;;;;0.00;0.00;;;;;;;;;;7396560;19;20141;-52
2024/04/12 09:37:03;;;;;;;0.00;0.00;;;;;;;;;;7396449;19;20144;-52
2024/04/12 09:39:57;;;;;;;0.00;0.00;;;;;;;;;;7394279;19;20166;-54
2024/04/12 09:42:16;;;;;;;0.00;0.00;;;;;;;;;;7395556;19;20138;-54
2024/04/12 09:44:49;;;;;;;0.00;0.00;;;;;;;;;;7390942;19;20176;-52
2024/04/12 10:37:28;;;;;;;0.00;0.00;;;;;;;;;;7395049;19;20205;-52
2024/04/12 10:40:04;;;;;;;0.00;0.00;;;;;;;;;;7394038;19;20138;-51
2024/04/12 10:42:33;;;;;;;0.10;0.10;;;;;;;;;;7393915;19;20168;-52
2024/04/12 10:45:01;;;;;;;0.10;0.10;;;;;;;;;;7391941;19;20498;-51
2024/04/12 10:47:28;;;;;;;0.00;0.00;;;;;;;;;;7390627;19;20685;-52
2024/04/12 10:49:56;;;;;;;0.10;0.10;;;;;;;;;;7393929;19;20138;-51
2024/04/12 10:52:29;;;;;;;0.00;0.00;;;;;;;;;;7391315;19;20138;-51
2024/04/12 10:54:58;;;;;;;0.00;0.00;;;;;;;;;;7393717;19;20631;-51
2024/04/12 10:57:24;;;;;;;0.00;0.00;;;;;;;;;;7392720;19;20597;-51
2024/04/12 10:59:54;;;;;;;0.00;0.00;;;;;;;;;;7392940;19;20141;-50
2024/04/12 11:02:21;;;;;;;0.00;0.00;;;;;;;;;;7393643;19;20134;-52
2024/04/12 11:05:24;;;;;;;0.10;0.10;;;;;;;;;;7391522;19;20167;-50
2024/04/12 11:07:51;;;;;;;0.00;0.00;;;;;;;;;;7393318;19;20164;-50
2024/04/12 11:10:24;;;;;;;0.00;0.00;;;;;;;;;;7392008;19;20202;-50
2024/04/12 11:12:55;;;;;;;0.00;0.00;;;;;;;;;;7392372;19;20138;-50
2024/04/12 11:31:52;;;;;;;0.00;0.00;;;;;;;;;;7391210;19;20145;-48
2024/04/12 11:34:25;;;;;;;0.00;0.00;;;;;;;;;;7391696;19;20134;-48
2024/04/12 11:36:54;;;;;;;0.10;0.10;;;;;;;;;;7392412;19;20134;-49
2024/04/12 11:39:25;;;;;;;0.00;0.00;;;;;;;;;;7397605;19;20153;-48
2024/04/12 11:42:00;;;;;;;0.00;0.00;;;;;;;;;;7398731;19;20649;-49
2024/04/12 11:44:26;;;;;;;0.00;0.00;;;;;;;;;;7398491;19;20506;-47
2024/04/12 11:46:56;;;;;;;0.00;0.00;;;;;;;;;;7399093;19;20149;-48
2024/04/12 11:49:26;;;;;;;0.00;0.00;;;;;;;;;;7394680;19;20175;-48
2024/04/12 11:51:55;;;;;;;0.00;0.00;;;;;;;;;;7396775;19;20164;-49
2024/04/12 11:54:22;;;;;;;0.00;0.00;;;;;;;;;;7397785;19;20205;-48
2024/04/12 11:56:49;;;;;;;0.00;0.00;;;;;;;;;;7398612;19;20136;-49
2024/04/12 11:59:18;;;;;;;0.00;0.00;;;;;;;;;;7398277;19;20138;-49
2024/04/12 12:01:44;;;;;;;0.00;0.00;;;;;;;;;;7398062;19;20479;-48
2024/04/12 12:04:11;;;;;;;0.00;0.00;;;;;;;;;;7398817;19;20145;-49
2024/04/12 12:06:38;;;;;;;0.00;0.00;;;;;;;;;;7398509;19;20212;-48
2024/04/12 12:09:11;;;;;;;0.00;0.00;;;;;;;;;;7398624;19;20297;-48
2024/04/12 12:11:43;;;;;;;0.00;0.00;;;;;;;;;;7397065;19;20623;-48
2024/04/12 12:14:10;;;;;;;0.10;0.10;;;;;;;;;;7398875;19;20141;-48
2024/04/12 12:16:36;;;;;;;0.00;0.00;;;;;;;;;;7396472;19;20647;-48
2024/04/12 12:19:06;;;;;;;0.00;0.00;;;;;;;;;;7397052;19;20142;-48
2024/04/12 12:21:33;;;;;;;0.00;0.00;;;;;;;;;;7396472;19;20486;-48
2024/04/12 12:23:59;;;;;;;0.00;0.00;;;;;;;;;;7397439;19;20130;-49
2024/04/12 12:26:25;;;;;;;0.00;0.00;;;;;;;;;;7396600;19;20141;-48
2024/04/12 12:28:51;;;;;;;0.00;0.00;;;;;;;;;;7396176;19;20177;-48
2024/04/12 12:31:18;;;;;;;0.00;0.00;;;;;;;;;;7397264;19;20130;-49
2024/04/12 12:33:49;;;;;;;0.00;0.00;;;;;;;;;;7397526;19;20456;-48
2024/04/12 12:36:16;;;;;;;0.00;0.00;;;;;;;;;;7396795;19;20145;-48
2024/04/12 12:38:43;;;;;;;0.00;0.00;;;;;;;;;;7396677;19;20222;-48
2024/04/12 12:41:10;;;;;;;0.00;0.00;;;;;;;;;;7396713;19;20197;-48
2024/04/12 12:43:40;;;;;;;0.00;0.00;;;;;;;;;;7397447;19;20202;-49
2024/04/12 12:46:07;;;;;;;0.00;0.00;;;;;;;;;;7396929;19;20614;-49
2024/04/12 12:48:33;;;;;;;0.00;0.00;;;;;;;;;;7394976;19;20185;-49
2024/04/12 12:50:59;;;;;;;0.00;0.00;;;;;;;;;;7395206;19;20202;-48
2024/04/12 12:53:27;;;;;;;0.00;0.00;;;;;;;;;;7396232;19;20138;-49
2024/04/12 12:55:55;;;;;;;0.00;0.00;;;;;;;;;;7394435;19;20471;-50
2024/04/12 12:58:25;;;;;;;0.00;0.00;;;;;;;;;;7396723;19;20459;-47
2024/04/12 13:00:52;;;;;;;0.00;0.00;;;;;;;;;;7396405;19;20139;-49
2024/04/12 13:03:25;;;;;;;0.00;0.00;;;;;;;;;;7395720;19;20601;-50
2024/04/12 13:05:52;;;;;;;0.00;0.00;;;;;;;;;;7396427;19;20153;-50
2024/04/12 13:08:19;;;;;;;0.00;0.00;;;;;;;;;;7396510;19;20594;-48
2024/04/12 13:10:48;;;;;;;0.00;0.00;;;;;;;;;;7395168;19;20169;-49
2024/04/12 13:13:21;;;;;;;0.00;0.00;;;;;;;;;;7396131;19;20149;-49
2024/04/12 13:15:54;;;;;;;0.00;0.00;;;;;;;;;;7396222;19;20594;-49
2024/04/12 13:18:23;;;;;;;0.00;0.00;;;;;;;;;;7396247;19;20237;-48
2024/04/12 13:20:52;;;;;;;0.00;0.00;;;;;;;;;;7396314;19;20172;-49
2024/04/12 13:23:19;;;;;;;0.00;0.00;;;;;;;;;;7396563;19;20163;-47
2024/04/12 13:25:45;;;;;;;0.00;0.00;;;;;;;;;;7395098;19;20138;-49
2024/04/12 13:28:11;;;;;;;0.00;0.00;;;;;;;;;;7396080;19;20130;-49
2024/04/12 13:30:40;;;;;;;0.00;0.00;;;;;;;;;;7395295;19;20484;-49
2024/04/12 13:33:08;;;;;;;0.00;0.00;;;;;;;;;;7393432;19;20138;-50
2024/04/12 13:35:40;;;;;;;0.00;0.00;;;;;;;;;;7395037;19;20573;-49
2024/04/12 13:38:13;;;;;;;0.00;0.00;;;;;;;;;;7393785;19;20142;-48
2024/04/12 13:40:45;;;;;;;0.00;0.00;;;;;;;;;;7394805;19;20155;-48
2024/04/12 13:43:13;;;;;;;0.00;0.00;;;;;;;;;;7396214;19;20142;-48
2024/04/12 13:51:15;;;;;;;0.00;0.00;;;;;;;;;;7393674;19;20153;-48
2024/04/12 13:54:00;;;;;;;0.00;0.00;;;;;;;;;;7394379;19;20157;-49
2024/04/12 13:56:26;;;;;;;0.00;0.00;;;;;;;;;;7392677;19;20138;-48
2024/04/12 13:58:57;;;;;;;0.00;0.00;;;;;;;;;;7394703;19;20469;-49
2024/04/12 14:01:23;;;;;;;0.00;0.00;;;;;;;;;;7394154;19;20565;-48
2024/04/12 14:03:53;;;;;;;0.00;0.00;;;;;;;;;;7394073;19;20134;-47
2024/04/12 14:06:23;;;;;;;0.00;0.00;;;;;;;;;;7394475;19;20146;-48
2024/04/12 14:08:49;;;;;;;0.00;0.00;;;;;;;;;;7394342;19;20141;-49
2024/04/12 14:11:15;;;;;;;0.00;0.00;;;;;;;;;;7394170;19;20138;-48
2024/04/12 14:13:44;;;;;;;0.00;0.00;;;;;;;;;;7394442;19;20130;-48
2024/04/12 14:16:10;;;;;;;0.00;0.00;;;;;;;;;;7394517;19;20134;-50
2024/04/12 14:18:38;;;;;;;0.00;0.00;;;;;;;;;;7392483;19;20624;-49
2024/04/12 14:21:04;;;;;;;0.00;0.00;;;;;;;;;;7393586;19;20147;-48
2024/04/12 14:23:30;;;;;;;0.00;0.00;;;;;;;;;;7393527;19;20126;-50
2024/04/12 14:25:57;;;;;;;0.00;0.00;;;;;;;;;;7393133;19;20149;-49
2024/04/12 14:28:24;;;;;;;0.00;0.00;;;;;;;;;;7394165;19;20157;-50
2024/04/12 14:30:51;;;;;;;0.00;0.00;;;;;;;;;;7392995;19;20205;-49
2024/04/12 14:33:19;;;;;;;0.00;0.00;;;;;;;;;;7393652;19;20130;-49
2024/04/12 14:35:45;;;;;;;0.00;0.00;;;;;;;;;;7393225;19;20238;-48
2024/04/12 14:38:15;;;;;;;0.00;0.00;;;;;;;;;;7392262;19;20150;-48
2024/04/12 14:40:50;;;;;;;0.00;0.00;;;;;;;;;;7393221;19;20542;-48
2024/04/12 14:43:19;;;;;;;0.00;0.00;;;;;;;;;;7393143;19;20233;-50
2024/04/12 14:45:45;;;;;;;0.00;0.00;;;;;;;;;;7393924;19;20535;-49
2024/04/12 14:48:15;;;;;;;0.00;0.00;;;;;;;;;;7392363;19;20198;-47
2024/04/12 14:50:41;;;;;;;0.00;0.00;;;;;;;;;;7392540;19;20158;-47
2024/04/12 14:53:07;;;;;;;0.00;0.00;;;;;;;;;;7392729;19;20157;-48
2024/04/12 14:55:33;;;;;;;0.00;0.00;;;;;;;;;;7393144;19;20142;-48
2024/04/12 14:57:59;;;;;;;0.00;0.00;;;;;;;;;;7393052;19;20134;-50
2024/04/12 15:00:26;;;;;;;0.00;0.00;;;;;;;;;;7391925;19;20484;-48
2024/04/12 15:49:48;;;;;;;0.00;0.00;;;;;;;;;;7396756;19;20148;-48
2024/04/12 15:52:16;;;;;;;0.00;0.00;;;;;;;;;;7395941;19;20162;-47
2024/04/12 15:54:51;;;;;;;0.00;0.00;;;;;;;;;;7399116;19;20151;-49
2024/04/12 16:11:05;;;;;;;0.00;0.00;;;;;;;;;;7397856;19;20638;-49
2024/04/12 16:13:31;;;;;;;0.00;0.00;;;;;;;;;;7398322;19;20197;-49
2024/04/12 16:15:58;;;;;;;0.00;0.00;;;;;;;;;;7398250;19;20138;-48
2024/04/12 16:18:24;;;;;;;0.00;0.00;;;;;;;;;;7398162;19;20640;-49
2024/04/12 16:20:50;;;;;;;0.00;0.00;;;;;;;;;;7397998;19;20126;-47
2024/04/12 16:23:17;;;;;;;0.00;0.00;;;;;;;;;;7395087;19;20142;-49
2024/04/12 16:25:47;;;;;;;0.00;0.00;;;;;;;;;;7395379;19;20149;-50
2024/04/12 16:28:13;;;;;;;0.10;0.10;;;;;;;;;;7396897;19;20142;-49
2024/04/12 16:30:42;;;;;;;0.03;0.03;;;;;;;;;;7397031;19;20138;-47
2024/04/12 16:33:08;;;;;;;0.00;0.00;;;;;;;;;;7395995;19;20605;-48
2024/04/12 16:35:34;;;;;;;0.00;0.00;;;;;;;;;;7397303;19;20142;-48
2024/04/12 16:38:02;;;;;;;0.10;0.10;;;;;;;;;;7396778;19;20613;-50
2024/04/12 16:40:31;;;;;;;0.10;0.10;;;;;;;;;;7396368;19;20616;-49
2024/04/12 16:42:57;;;;;;;0.00;0.00;;;;;;;;;;7397019;19;20145;-48
2024/04/12 16:45:24;;;;;;;0.00;0.00;;;;;;;;;;7396720;19;20593;-48
2024/04/12 16:47:51;;;;;;;0.00;0.00;;;;;;;;;;7396101;19;20494;-49
2024/04/12 16:50:17;;;;;;;0.03;0.03;;;;;;;;;;7395313;19;20161;-48
2024/04/12 16:52:49;;;;;;;0.00;0.00;;;;;;;;;;7392206;19;20144;-50
2024/04/12 16:55:15;;;;;;;0.00;0.00;;;;;;;;;;7395675;19;20145;-49
2024/04/12 16:57:43;;;;;;;0.00;0.00;;;;;;;;;;7396480;19;20160;-47
2024/04/12 17:00:09;;;;;;;0.00;0.00;;;;;;;;;;7396672;19;20134;-48
2024/04/12 17:02:35;;;;;;;0.00;0.00;;;;;;;;;;7396861;19;20631;-49
2024/04/12 17:05:01;;;;;;;0.00;0.00;;;;;;;;;;7396051;19;20235;-49
2024/04/12 17:07:28;;;;;;;0.00;0.00;;;;;;;;;;7395782;19;20130;-47
2024/04/12 17:09:54;;;;;;;0.00;0.00;;;;;;;;;;7396269;19;20153;-49
2024/04/12 17:12:20;;;;;;;0.00;0.00;;;;;;;;;;7395187;19;20143;-49
2024/04/12 17:14:47;;;;;;;0.00;0.00;;;;;;;;;;7396047;19;20134;-50
2024/04/12 17:17:13;;;;;;;0.00;0.00;;;;;;;;;;7395963;19;20130;-48